createdAt,value
2023-04-10T00:03:20.100Z,82
2023-04-10T00:13:20.716Z,83
2023-04-10T00:23:20.921Z,85
2023-04-10T00:33:21.992Z,85
2023-04-10T00:43:23.071Z,86
2023-04-10T00:53:24.217Z,86
2023-04-10T01:03:25.131Z,87
2023-04-10T01:13:25.622Z,87
2023-04-10T01:23:26.020Z,88
2023-04-10T01:33:26.708Z,88
2023-04-10T01:43:27.349Z,88
2023-04-10T01:53:27.717Z,88
2023-04-10T02:03:28.660Z,89
2023-04-10T02:13:28.677Z,89
2023-04-10T02:23:29.720Z,89
2023-04-10T02:33:30.779Z,88
2023-04-10T02:43:30.931Z,87
2023-04-10T02:53:31.165Z,87
2023-04-10T03:03:32.040Z,86
2023-04-10T03:13:32.985Z,86
2023-04-10T03:23:33.984Z,85
2023-04-10T03:33:34.614Z,85
2023-04-10T03:43:35.139Z,86
2023-04-10T04:13:37.396Z,87
2023-04-10T04:23:38.158Z,87
2023-04-10T04:33:38.416Z,87
2023-04-10T04:43:39.089Z,88
2023-04-10T04:53:39.279Z,88
2023-04-10T05:03:40.060Z,88
2023-04-10T05:23:41.518Z,89
2023-04-10T05:33:41.669Z,88
2023-04-10T05:43:42.162Z,88
2023-04-10T05:53:42.752Z,88
2023-04-10T06:03:43.048Z,88
2023-04-10T06:13:43.572Z,86
2023-04-10T06:23:43.948Z,82
2023-04-10T06:33:44.892Z,79
2023-04-10T06:43:45.672Z,77
2023-04-10T06:53:46.536Z,76
2023-04-10T07:03:47.055Z,74
2023-04-10T07:13:47.352Z,72
2023-04-10T07:23:47.636Z,70
2023-04-10T07:33:48.177Z,68
2023-04-10T07:43:48.617Z,67
2023-04-10T07:53:48.742Z,64
2023-04-10T08:03:49.730Z,63
2023-04-10T08:13:50.000Z,60
2023-04-10T08:23:50.609Z,59
2023-04-10T08:33:51.663Z,56
2023-04-10T08:43:52.496Z,54
2023-04-10T08:53:52.764Z,53
2023-04-10T09:03:53.029Z,51
2023-04-10T09:13:53.119Z,49
2023-04-10T09:23:54.113Z,50
2023-04-10T09:33:54.332Z,48
2023-04-10T09:53:55.553Z,47
2023-04-10T10:03:56.479Z,47
2023-04-10T11:13:59.989Z,45
2023-04-10T11:24:00.926Z,43
2023-04-10T12:44:06.914Z,41
2023-04-10T12:54:07.353Z,40
2023-04-10T13:54:10.441Z,38
2023-04-10T14:04:10.773Z,38
2023-04-10T14:44:13.517Z,41
2023-04-10T14:54:14.631Z,42
2023-04-10T15:04:15.715Z,43
2023-04-10T15:14:16.484Z,44
2023-04-10T15:24:17.299Z,44
2023-04-10T15:34:17.943Z,44
2023-04-10T15:44:18.804Z,45
2023-04-10T15:54:19.737Z,45
2023-04-10T16:14:20.674Z,46
2023-04-10T16:34:22.364Z,46
2023-04-10T16:44:23.082Z,46
2023-04-10T16:54:23.929Z,48
2023-04-10T17:04:24.796Z,51
2023-04-10T17:14:24.993Z,55
2023-04-10T17:24:25.821Z,61
2023-04-10T17:34:26.879Z,67
2023-04-10T18:34:30.235Z,84
2023-04-10T20:24:36.320Z,100
2023-04-10T21:54:42.204Z,100
2023-04-10T22:04:53.783Z,100
2023-04-10T22:24:44.783Z,100
